createdAt,value
2022-11-15T00:00:55.383Z,25.87
2022-11-15T00:03:24.825Z,26.97
2022-11-15T00:05:51.564Z,23.33
2022-11-15T00:08:18.058Z,22.50
2022-11-15T00:10:55.220Z,24.87
2022-11-15T00:13:21.624Z,23.37
2022-11-15T00:15:48.042Z,25.37
2022-11-15T00:18:15.198Z,25.53
2022-11-15T00:20:41.707Z,24.87
2022-11-15T00:23:08.376Z,24.40
2022-11-15T00:25:35.147Z,25.67
2022-11-15T00:28:04.472Z,23.87
2022-11-15T00:30:31.651Z,24.33
2022-11-15T00:33:02.044Z,26.10
2022-11-15T00:35:28.561Z,23.30
2022-11-15T00:37:55.025Z,24.67
2022-11-15T00:40:21.421Z,23.40
2022-11-15T00:42:47.829Z,22.63
2022-11-15T00:45:14.313Z,25.40
2022-11-15T00:47:46.282Z,22.43
2022-11-15T00:50:15.103Z,23.43
2022-11-15T00:52:42.322Z,21.00
2022-11-15T00:55:14.732Z,23.43
2022-11-15T00:57:41.159Z,23.40
2022-11-15T01:00:08.320Z,23.63
2022-11-15T01:02:35.754Z,22.93
2022-11-15T01:05:02.241Z,24.00
2022-11-15T01:07:28.747Z,23.50
2022-11-15T01:09:55.170Z,23.33
2022-11-15T01:12:21.651Z,23.43
2022-11-15T01:14:48.107Z,21.63
2022-11-15T01:17:14.518Z,22.57
2022-11-15T01:19:40.922Z,23.03
2022-11-15T01:22:07.365Z,20.40
2022-11-15T01:24:33.853Z,22.00
2022-11-15T01:27:00.339Z,20.90
2022-11-15T01:29:26.819Z,22.13
2022-11-15T01:31:55.151Z,21.40
2022-11-15T01:34:21.576Z,21.13
2022-11-15T01:36:47.978Z,22.03
2022-11-15T01:39:14.526Z,21.23
2022-11-15T01:41:40.986Z,20.57
2022-11-15T01:44:32.324Z,20.93
2022-11-15T01:47:01.994Z,21.63
2022-11-15T01:49:33.369Z,19.27
2022-11-15T01:52:03.582Z,19.77
2022-11-15T01:54:30.782Z,20.70
2022-11-15T01:57:04.792Z,18.93
2022-11-15T01:59:31.831Z,21.30
2022-11-15T02:01:58.555Z,20.27
2022-11-15T02:04:33.984Z,20.27
2022-11-15T02:07:04.499Z,19.63
2022-11-15T02:09:31.711Z,21.60
2022-11-15T02:11:58.602Z,22.43
2022-11-15T02:14:27.603Z,20.03
2022-11-15T02:17:10.377Z,19.77
2022-11-15T02:20:12.211Z,20.33
2022-11-15T02:23:07.548Z,19.27
2022-11-15T02:25:37.067Z,21.23
2022-11-15T02:28:33.447Z,20.17
2022-11-15T02:31:23.845Z,19.77
2022-11-15T02:33:57.875Z,20.47
2022-11-15T02:36:41.079Z,18.57
2022-11-15T02:39:35.799Z,20.97
2022-11-15T02:42:30.388Z,20.47
2022-11-15T02:44:59.250Z,19.33
2022-11-15T02:47:28.883Z,20.30
2022-11-15T02:50:09.268Z,20.03
2022-11-15T02:52:35.736Z,20.20
2022-11-15T02:55:03.337Z,20.03
2022-11-15T02:57:48.468Z,19.87
2022-11-15T03:00:20.444Z,20.90
2022-11-15T03:03:20.910Z,20.47
2022-11-15T03:06:09.217Z,19.70
2022-11-15T03:08:46.626Z,19.30
2022-11-15T03:11:16.679Z,19.87
2022-11-15T03:13:58.763Z,19.80
2022-11-15T03:16:27.947Z,19.30
2022-11-15T03:19:04.217Z,18.57
2022-11-15T03:21:33.277Z,20.57
2022-11-15T03:24:04.919Z,19.90
2022-11-15T03:26:33.366Z,19.57
2022-11-15T03:29:09.114Z,19.77
2022-11-15T03:31:51.157Z,17.77
2022-11-15T03:34:39.537Z,19.53
2022-11-15T03:37:06.941Z,17.50
2022-11-15T03:39:34.096Z,17.70
2022-11-15T03:42:07.993Z,17.70
2022-11-15T03:44:47.700Z,18.97
2022-11-15T03:47:24.590Z,18.27
2022-11-15T03:50:00.267Z,18.93
2022-11-15T03:52:26.768Z,18.13
2022-11-15T03:54:57.672Z,17.77
2022-11-15T03:57:24.142Z,17.33
2022-11-15T03:59:52.898Z,18.07
2022-11-15T04:02:19.333Z,18.83
2022-11-15T04:04:45.852Z,17.70
2022-11-15T04:07:12.616Z,16.73
2022-11-15T04:09:59.322Z,18.77
2022-11-15T04:12:31.911Z,16.97
2022-11-15T04:15:10.622Z,17.33
2022-11-15T04:17:47.869Z,17.20
2022-11-15T04:20:35.274Z,17.17
2022-11-15T04:23:22.496Z,32.67
2022-11-15T04:25:52.162Z,22.57
2022-11-15T04:28:19.154Z,17.67
2022-11-15T04:30:45.624Z,17.20
2022-11-15T04:33:12.099Z,18.40
2022-11-15T04:35:38.633Z,16.20
2022-11-15T04:38:07.630Z,17.23
2022-11-15T04:40:34.744Z,16.20
2022-11-15T04:43:04.000Z,17.40
2022-11-15T04:45:31.413Z,16.80
2022-11-15T04:47:57.869Z,16.27
2022-11-15T04:50:24.297Z,21.70
2022-11-15T04:52:53.481Z,16.30
2022-11-15T04:55:20.342Z,16.13
2022-11-15T04:57:46.884Z,16.90
2022-11-15T05:00:15.953Z,15.87
2022-11-15T05:03:00.855Z,15.90
2022-11-15T05:05:27.313Z,15.47
2022-11-15T05:07:53.772Z,15.13
2022-11-15T05:10:20.217Z,15.47
2022-11-15T05:12:47.757Z,15.93
2022-11-15T05:15:14.303Z,15.50
2022-11-15T05:17:40.755Z,16.63
2022-11-15T05:20:07.835Z,16.47
2022-11-15T05:22:34.369Z,16.07
2022-11-15T05:25:00.859Z,15.80
2022-11-15T05:27:27.334Z,16.93
2022-11-15T05:29:53.793Z,14.33
2022-11-15T05:32:20.194Z,15.27
2022-11-15T05:34:47.413Z,15.50
2022-11-15T05:37:15.210Z,15.00
2022-11-15T05:39:41.693Z,14.63
2022-11-15T05:42:14.324Z,14.77
2022-11-15T05:44:45.645Z,15.57
2022-11-15T05:47:18.130Z,14.97
2022-11-15T05:49:46.448Z,15.33
2022-11-15T05:52:16.430Z,15.00
2022-11-15T05:54:43.608Z,15.90
2022-11-15T05:57:10.154Z,15.40
2022-11-15T05:59:37.313Z,15.00
2022-11-15T06:02:03.940Z,15.87
2022-11-15T06:04:30.463Z,16.13
2022-11-15T06:06:58.882Z,14.37
2022-11-15T06:09:25.384Z,14.17
2022-11-15T06:11:51.793Z,15.53
2022-11-15T06:14:18.198Z,15.47
2022-11-15T06:16:45.073Z,15.50
2022-11-15T06:19:11.552Z,15.03
2022-11-15T06:21:38.015Z,15.43
2022-11-15T06:24:05.575Z,14.83
2022-11-15T06:26:32.630Z,15.30
2022-11-15T06:28:59.137Z,14.43
2022-11-15T06:31:25.656Z,13.67
2022-11-15T06:33:52.128Z,14.70
2022-11-15T06:36:19.095Z,14.43
2022-11-15T06:38:45.985Z,15.17
2022-11-15T06:41:13.858Z,14.73
2022-11-15T06:43:40.880Z,14.00
2022-11-15T06:46:07.988Z,14.33
2022-11-15T06:48:35.393Z,14.70
2022-11-15T06:51:03.540Z,15.33
2022-11-15T06:53:31.387Z,14.57
2022-11-15T06:56:02.409Z,14.30
2022-11-15T06:58:28.944Z,15.07
2022-11-15T07:00:59.757Z,14.87
2022-11-15T07:03:26.871Z,15.27
2022-11-15T07:05:55.682Z,14.73
2022-11-15T07:08:23.296Z,15.47
2022-11-15T07:10:50.223Z,14.53
2022-11-15T07:13:17.017Z,14.77
2022-11-15T07:15:43.565Z,16.63
2022-11-15T07:18:10.081Z,15.10
2022-11-15T07:20:36.498Z,15.57
2022-11-15T07:23:06.971Z,14.33
2022-11-15T07:25:33.753Z,14.27
2022-11-15T07:28:01.079Z,14.60
2022-11-15T07:30:28.809Z,14.73
2022-11-15T07:32:56.692Z,14.00
2022-11-15T07:35:24.338Z,14.17
2022-11-15T07:37:58.527Z,15.03
2022-11-15T07:40:25.988Z,14.40
2022-11-15T07:42:55.386Z,14.90
2022-11-15T07:45:22.659Z,14.73
2022-11-15T07:47:50.725Z,15.17
2022-11-15T07:50:18.484Z,15.57
2022-11-15T07:52:45.407Z,15.10
2022-11-15T07:55:12.056Z,15.57
2022-11-15T07:57:38.555Z,14.53
2022-11-15T08:00:06.464Z,15.13
2022-11-15T08:02:33.117Z,13.87
2022-11-15T08:05:00.299Z,14.70
2022-11-15T08:07:29.947Z,14.67
2022-11-15T08:09:56.501Z,15.17
2022-11-15T08:12:23.358Z,15.27
2022-11-15T08:14:50.361Z,13.40
2022-11-15T08:17:16.853Z,15.40
2022-11-15T08:19:43.299Z,14.57
2022-11-15T08:22:09.776Z,13.47
2022-11-15T08:24:36.266Z,15.10
2022-11-15T08:27:02.785Z,14.20
2022-11-15T08:29:29.297Z,13.23
2022-11-15T08:31:57.107Z,14.60
2022-11-15T08:34:23.554Z,15.37
2022-11-15T08:36:50.195Z,13.90
2022-11-15T08:39:16.641Z,14.50
2022-11-15T08:41:43.058Z,13.97
2022-11-15T08:44:09.509Z,14.90
2022-11-15T08:46:35.929Z,12.80
2022-11-15T08:49:02.340Z,14.27
2022-11-15T08:51:28.827Z,13.73
2022-11-15T08:53:55.298Z,14.93
2022-11-15T08:56:21.763Z,13.13
2022-11-15T08:58:48.605Z,14.70
2022-11-15T09:01:20.486Z,14.13
2022-11-15T09:03:46.946Z,13.30
2022-11-15T09:06:13.782Z,14.80
2022-11-15T09:08:47.016Z,14.73
2022-11-15T09:11:14.190Z,13.63
2022-11-15T09:13:40.719Z,14.13
2022-11-15T09:16:07.695Z,13.53
2022-11-15T09:18:34.447Z,12.57
2022-11-15T09:21:03.227Z,12.83
2022-11-15T09:23:29.953Z,12.63
2022-11-15T09:26:02.176Z,13.87
2022-11-15T09:28:29.943Z,12.40
2022-11-15T09:31:01.069Z,12.17
2022-11-15T09:33:28.134Z,12.67
2022-11-15T09:35:55.207Z,12.87
2022-11-15T09:38:21.879Z,14.30
2022-11-15T09:40:58.484Z,14.60
2022-11-15T09:43:31.953Z,13.70
2022-11-15T09:46:16.205Z,13.17
2022-11-15T09:48:55.268Z,12.70
2022-11-15T09:51:28.503Z,13.73
2022-11-15T09:57:05.185Z,12.80
2022-11-15T09:59:43.551Z,11.13
2022-11-15T10:02:47.246Z,12.57
2022-11-15T10:05:19.215Z,12.00
2022-11-15T10:07:59.410Z,11.23
2022-11-15T10:10:47.740Z,12.10
2022-11-15T10:13:23.580Z,11.47
2022-11-15T10:15:51.979Z,13.00
2022-11-15T10:18:35.595Z,13.60
2022-11-15T10:21:18.569Z,13.27
2022-11-15T10:23:45.194Z,12.03
2022-11-15T10:26:16.500Z,12.53
2022-11-15T10:28:42.949Z,12.80
2022-11-15T10:31:28.678Z,10.40
2022-11-15T10:34:13.652Z,10.90
2022-11-15T10:36:54.909Z,10.43
2022-11-15T10:42:18.134Z,10.23
2022-11-15T10:44:45.965Z,11.13
2022-11-15T10:47:37.830Z,10.67
2022-11-15T10:50:28.090Z,10.00
2022-11-15T10:52:54.827Z,11.27
2022-11-15T10:55:28.982Z,10.60
2022-11-15T10:58:34.270Z,10.43
2022-11-15T11:01:11.595Z,8.73
2022-11-15T11:03:40.197Z,9.70
2022-11-15T11:06:17.903Z,9.63
2022-11-15T11:09:06.244Z,9.97
2022-11-15T11:11:47.448Z,10.03
2022-11-15T11:14:23.280Z,9.87
2022-11-15T11:16:56.294Z,10.17
2022-11-15T11:19:42.769Z,8.80
2022-11-15T11:22:40.338Z,9.07
2022-11-15T11:25:23.830Z,8.33
2022-11-15T11:28:02.359Z,9.53
2022-11-15T11:30:46.907Z,8.90
2022-11-15T11:33:50.652Z,9.53
2022-11-15T11:36:28.391Z,8.53
2022-11-15T11:38:56.196Z,10.67
2022-11-15T11:41:50.861Z,9.50
2022-11-15T11:44:42.472Z,8.97
2022-11-15T11:47:17.165Z,9.53
2022-11-15T11:49:57.947Z,9.83
2022-11-15T11:52:42.489Z,8.73
2022-11-15T11:55:18.024Z,9.70
2022-11-15T11:58:05.692Z,9.83
2022-11-15T12:00:37.051Z,9.23
2022-11-15T12:03:15.196Z,9.90
2022-11-15T12:05:50.154Z,9.47
2022-11-15T12:08:19.355Z,8.53
2022-11-15T12:10:51.681Z,9.27
2022-11-15T12:13:24.533Z,8.93
2022-11-15T12:16:10.447Z,9.33
2022-11-15T12:18:37.871Z,8.63
2022-11-15T12:21:15.764Z,8.87
2022-11-15T12:23:49.174Z,9.50
2022-11-15T12:26:27.130Z,8.80
2022-11-15T12:29:07.595Z,7.80
2022-11-15T12:31:52.414Z,8.37
2022-11-15T12:34:21.718Z,9.17
2022-11-15T12:36:50.244Z,7.83
2022-11-15T12:39:17.958Z,8.90
2022-11-15T12:42:05.869Z,8.33
2022-11-15T12:44:32.313Z,9.10
2022-11-15T12:46:58.745Z,8.33
2022-11-15T12:49:43.394Z,8.17
2022-11-15T12:52:10.880Z,9.00
2022-11-15T12:54:37.274Z,7.60
2022-11-15T12:57:03.713Z,8.00
2022-11-15T12:59:54.215Z,7.47
2022-11-15T13:02:24.918Z,8.20
2022-11-15T13:04:53.405Z,8.50
2022-11-15T13:07:41.872Z,7.30
2022-11-15T13:10:11.416Z,6.87
2022-11-15T13:12:43.671Z,7.10
2022-11-15T13:15:13.168Z,7.20
2022-11-15T13:17:56.813Z,7.80
2022-11-15T13:20:32.020Z,8.17
2022-11-15T13:23:16.780Z,8.23
2022-11-15T13:25:58.429Z,7.50
2022-11-15T13:28:38.510Z,7.97
2022-11-15T13:31:38.066Z,8.57
2022-11-15T13:37:23.578Z,7.80
2022-11-15T13:39:50.748Z,7.73
2022-11-15T13:42:19.182Z,7.40
2022-11-15T13:44:57.659Z,7.90
2022-11-15T13:47:28.138Z,8.60
2022-11-15T13:49:54.676Z,8.50
2022-11-15T13:52:22.542Z,7.70
2022-11-15T13:55:00.525Z,8.77
2022-11-15T13:57:31.169Z,7.77
2022-11-15T14:00:02.164Z,8.00
2022-11-15T14:02:33.746Z,8.10
2022-11-15T14:05:16.393Z,8.10
2022-11-15T14:07:55.005Z,6.93
2022-11-15T14:10:33.773Z,8.33
2022-11-15T14:13:01.412Z,10.00
2022-11-15T14:15:36.622Z,9.90
2022-11-15T14:18:04.661Z,10.27
2022-11-15T14:20:37.761Z,7.97
2022-11-15T14:23:19.210Z,8.40
2022-11-15T14:25:54.612Z,7.90
2022-11-15T14:28:24.199Z,7.73
2022-11-15T14:30:55.521Z,7.70
2022-11-15T14:33:26.483Z,7.83
2022-11-15T14:35:54.060Z,7.07
2022-11-15T14:38:20.741Z,7.80
2022-11-15T14:40:47.524Z,9.33
2022-11-15T14:43:14.422Z,7.27
2022-11-15T14:45:41.584Z,7.83
2022-11-15T14:48:08.505Z,8.20
2022-11-15T14:50:35.960Z,9.33
2022-11-15T14:53:03.383Z,7.77
2022-11-15T14:55:34.795Z,7.90
2022-11-15T14:58:03.310Z,7.80
2022-11-15T15:00:35.409Z,8.63
2022-11-15T15:03:03.149Z,8.23
2022-11-15T15:05:35.284Z,7.13
2022-11-15T15:08:01.851Z,7.50
2022-11-15T15:10:39.959Z,8.20
2022-11-15T15:13:11.452Z,8.23
2022-11-15T15:15:38.733Z,7.53
2022-11-15T15:18:05.919Z,8.63
2022-11-15T15:20:33.415Z,8.73
2022-11-15T15:22:59.885Z,9.10
2022-11-15T15:25:33.027Z,15.07
2022-11-15T15:28:00.471Z,11.67
2022-11-15T15:30:29.942Z,10.57
2022-11-15T15:32:56.760Z,7.70
2022-11-15T15:35:23.729Z,7.67
2022-11-15T15:37:51.157Z,8.30
2022-11-15T15:40:21.151Z,8.70
2022-11-15T15:42:48.744Z,9.00
2022-11-15T15:45:16.497Z,8.73
2022-11-15T15:47:43.608Z,9.13
2022-11-15T15:50:33.120Z,8.67
2022-11-15T15:53:01.816Z,8.63
2022-11-15T15:55:28.903Z,8.10
2022-11-15T15:57:55.641Z,9.43
2022-11-15T16:00:24.641Z,8.50
2022-11-15T16:02:51.768Z,9.13
2022-11-15T16:05:18.717Z,9.17
2022-11-15T16:07:47.389Z,9.27
2022-11-15T16:10:21.397Z,9.70
2022-11-15T16:12:48.818Z,9.03
2022-11-15T16:15:15.627Z,9.60
2022-11-15T16:17:48.016Z,9.27
2022-11-15T16:20:45.462Z,9.33
2022-11-15T16:23:15.426Z,9.57
2022-11-15T16:25:59.028Z,18.00
2022-11-15T16:28:28.003Z,10.93
2022-11-15T16:31:07.142Z,9.73
2022-11-15T16:33:34.255Z,10.20
2022-11-15T16:36:01.147Z,10.47
2022-11-15T16:38:28.165Z,10.37
2022-11-15T16:40:54.668Z,10.10
2022-11-15T16:43:21.103Z,9.73
2022-11-15T16:45:47.911Z,9.43
2022-11-15T16:48:25.578Z,9.40
2022-11-15T16:50:56.348Z,9.47
2022-11-15T16:53:23.898Z,8.90
2022-11-15T16:55:50.425Z,10.00
2022-11-15T16:58:16.850Z,9.80
2022-11-15T17:00:43.547Z,9.47
2022-11-15T17:03:10.123Z,10.10
2022-11-15T17:05:37.085Z,9.60
2022-11-15T17:08:03.543Z,9.47
2022-11-15T17:10:30.290Z,10.20
2022-11-15T17:12:56.891Z,9.70
2022-11-15T17:15:24.558Z,9.67
2022-11-15T17:17:55.074Z,10.80
2022-11-15T17:20:23.798Z,10.90
2022-11-15T17:22:50.336Z,9.60
2022-11-15T17:25:17.008Z,12.13
2022-11-15T17:27:43.516Z,12.03
2022-11-15T17:30:15.229Z,10.07
2022-11-15T17:32:42.979Z,11.10
2022-11-15T17:35:43.446Z,11.23
2022-11-15T17:38:09.959Z,10.67
2022-11-15T17:40:36.421Z,9.90
2022-11-15T17:43:04.749Z,9.60
2022-11-15T17:45:31.210Z,10.73
2022-11-15T17:47:57.667Z,10.90
2022-11-15T17:50:24.137Z,10.50
2022-11-15T17:52:50.666Z,9.97
2022-11-15T17:55:17.086Z,10.20
2022-11-15T17:57:44.221Z,10.63
2022-11-15T18:00:11.471Z,10.10
2022-11-15T18:02:38.034Z,10.77
2022-11-15T18:05:04.879Z,11.83
2022-11-15T18:07:31.392Z,12.33
2022-11-15T18:09:57.932Z,9.90
2022-11-15T18:12:24.489Z,12.27
2022-11-15T18:14:50.944Z,11.47
2022-11-15T18:17:19.067Z,10.23
2022-11-15T18:19:45.550Z,10.07
2022-11-15T18:22:12.017Z,10.17
2022-11-15T18:24:38.715Z,10.50
2022-11-15T18:27:06.397Z,10.07
2022-11-15T18:29:34.643Z,10.90
2022-11-15T18:32:03.998Z,10.10
2022-11-15T18:34:32.574Z,10.17
2022-11-15T18:37:00.487Z,10.33
2022-11-15T18:39:26.992Z,10.13
2022-11-15T18:41:53.612Z,10.40
2022-11-15T18:44:20.086Z,9.90
2022-11-15T18:46:46.621Z,10.43
2022-11-15T18:49:15.214Z,10.83
2022-11-15T18:51:42.231Z,9.40
2022-11-15T18:54:13.555Z,9.33
2022-11-15T18:56:40.643Z,9.57
2022-11-15T18:59:08.804Z,9.87
2022-11-15T19:01:40.244Z,10.67
2022-11-15T19:04:09.856Z,10.77
2022-11-15T19:06:41.947Z,9.90
2022-11-15T19:09:10.297Z,10.23
2022-11-15T19:11:39.460Z,10.50
2022-11-15T19:14:11.438Z,9.57
2022-11-15T19:16:40.656Z,11.47
2022-11-15T19:19:11.446Z,12.67
2022-11-15T19:21:38.360Z,10.83
2022-11-15T19:24:05.582Z,10.00
2022-11-15T19:26:32.380Z,10.40
2022-11-15T19:29:01.290Z,9.30
2022-11-15T19:31:29.647Z,10.70
2022-11-15T19:33:58.830Z,9.73
2022-11-15T19:36:28.941Z,10.67
2022-11-15T19:38:56.485Z,10.17
2022-11-15T19:41:25.933Z,10.53
2022-11-15T19:43:52.854Z,14.17
2022-11-15T19:46:21.916Z,10.93
2022-11-15T19:48:48.669Z,10.33
2022-11-15T19:51:19.243Z,9.83
2022-11-15T19:53:45.915Z,9.50
2022-11-15T19:56:17.908Z,11.03
2022-11-15T19:58:45.740Z,10.93
2022-11-15T20:01:32.372Z,11.57
2022-11-15T20:04:00.008Z,12.03
2022-11-15T20:06:39.271Z,10.37
2022-11-15T20:09:18.361Z,11.63
2022-11-15T20:11:45.065Z,12.13
2022-11-15T20:14:13.708Z,11.47
2022-11-15T20:16:40.535Z,12.20
2022-11-15T20:19:08.487Z,12.43
2022-11-15T20:21:35.899Z,11.77
2022-11-15T20:24:02.323Z,13.00
2022-11-15T20:26:30.416Z,11.00
2022-11-15T20:29:01.174Z,12.77
2022-11-15T20:31:28.356Z,12.70
2022-11-15T20:33:54.872Z,13.07
2022-11-15T20:36:21.335Z,11.43
2022-11-15T20:38:47.837Z,12.00
2022-11-15T20:41:14.780Z,13.10
2022-11-15T20:43:43.508Z,12.10
2022-11-15T20:46:12.107Z,13.17
2022-11-15T20:48:38.737Z,12.50
2022-11-15T20:51:06.610Z,12.50
2022-11-15T20:53:33.417Z,12.03
2022-11-15T20:56:14.582Z,13.10
2022-11-15T20:58:41.895Z,12.93
2022-11-15T21:01:10.712Z,12.43
2022-11-15T21:03:37.411Z,13.67
2022-11-15T21:06:03.945Z,13.30
2022-11-15T21:08:53.681Z,13.50
2022-11-15T21:11:42.070Z,14.13
2022-11-15T21:14:09.752Z,13.33
2022-11-15T21:16:36.740Z,13.77
2022-11-15T21:19:05.565Z,12.83
2022-11-15T21:21:32.198Z,13.90
2022-11-15T21:23:58.707Z,13.03
2022-11-15T21:26:26.447Z,13.43
2022-11-15T21:28:52.910Z,12.50
2022-11-15T21:31:19.313Z,12.63
2022-11-15T21:33:45.767Z,13.87
2022-11-15T21:36:12.626Z,13.33
2022-11-15T21:38:39.054Z,13.10
2022-11-15T21:41:06.116Z,12.93
2022-11-15T21:43:32.712Z,13.67
2022-11-15T21:46:04.378Z,13.07
2022-11-15T21:48:33.119Z,11.80
2022-11-15T21:51:05.498Z,13.73
2022-11-15T21:53:32.726Z,14.67
2022-11-15T21:56:00.271Z,13.23
2022-11-15T21:58:27.084Z,13.13
2022-11-15T22:01:15.386Z,13.60
2022-11-15T22:03:42.647Z,13.03
2022-11-15T22:06:16.011Z,12.50
2022-11-15T22:08:44.682Z,13.43
2022-11-15T22:11:11.121Z,13.50
2022-11-15T22:13:37.938Z,13.77
2022-11-15T22:16:04.540Z,13.43
2022-11-15T22:18:31.234Z,13.93
2022-11-15T22:21:00.650Z,13.93
2022-11-15T22:23:29.716Z,16.40
2022-11-15T22:25:56.828Z,12.87
2022-11-15T22:28:24.072Z,14.30
2022-11-15T22:30:53.387Z,14.67
2022-11-15T22:33:22.389Z,13.67
2022-11-15T22:35:49.705Z,14.37
2022-11-15T22:38:16.548Z,14.73
2022-11-15T22:40:43.755Z,14.10
2022-11-15T22:43:13.131Z,14.30
2022-11-15T22:45:55.975Z,14.60
2022-11-15T22:48:29.249Z,13.97
2022-11-15T22:50:56.425Z,14.33
2022-11-15T22:53:23.782Z,14.40
2022-11-15T22:55:56.182Z,14.37
2022-11-15T22:58:24.753Z,14.27
2022-11-15T23:00:52.978Z,14.77
2022-11-15T23:03:20.815Z,14.03
2022-11-15T23:05:48.114Z,15.20
2022-11-15T23:08:14.912Z,14.37
2022-11-15T23:11:00.352Z,15.10
2022-11-15T23:13:29.225Z,14.87
2022-11-15T23:16:23.999Z,14.10
2022-11-15T23:18:51.730Z,13.83
2022-11-15T23:21:43.577Z,13.73
2022-11-15T23:24:11.952Z,14.83
2022-11-15T23:26:39.411Z,14.80
2022-11-15T23:29:08.128Z,14.57
2022-11-15T23:32:01.163Z,14.90
2022-11-15T23:34:29.369Z,13.87
2022-11-15T23:36:55.952Z,14.53
2022-11-15T23:39:22.564Z,14.03
2022-11-15T23:41:49.085Z,15.37
2022-11-15T23:44:15.657Z,15.67
2022-11-15T23:46:42.297Z,15.00
2022-11-15T23:49:08.898Z,14.13
2022-11-15T23:51:36.016Z,14.70
2022-11-15T23:54:02.548Z,16.07
2022-11-15T23:56:29.119Z,16.00
2022-11-15T23:58:55.813Z,15.70
